Time;durP1;ratioP1;P1;durP2;ratioP2;P2;SDS_P1;SDS_P2;PMS_P1;PMS_P2;Temp;Humidity;BMP_temperature;BMP_pressure;BME280_temperature;BME280_humidity;BME280_pressure;Samples;Min_cycle;Max_cycle;Signal;HPM_P1;HPM_P2
2022/06/15 00:00:39;;;;;;;4.05;1.80;;;;;;;12.32;70.25;97069.16;1726175;82;20945;-82
2022/06/15 00:03:05;;;;;;;4.10;2.27;;;;;;;12.29;70.25;97072.61;1722782;83;20983;-82
2022/06/15 00:05:31;;;;;;;3.47;1.60;;;;;;;12.24;70.28;97077.55;1729953;82;20963;-81
2022/06/15 00:07:57;;;;;;;8.53;2.37;;;;;;;12.20;70.03;97076.25;1711302;83;21289;-81
2022/06/15 00:10:22;;;;;;;7.25;2.17;;;;;;;12.19;70.06;97075.94;1705173;82;20966;-81
2022/06/15 00:12:48;;;;;;;6.25;2.47;;;;;;;12.19;70.24;97074.63;1724809;82;21016;-81
2022/06/15 00:15:15;;;;;;;4.75;1.80;;;;;;;12.18;70.10;97066.50;1717580;82;20970;-81
2022/06/15 00:17:40;;;;;;;4.10;2.15;;;;;;;12.15;69.83;97068.97;1693246;83;21011;-81
2022/06/15 00:20:08;;;;;;;5.53;2.30;;;;;;;12.12;70.10;97073.23;1711466;82;20977;-81
2022/06/15 00:22:33;;;;;;;3.30;2.00;;;;;;;12.09;70.30;97074.88;1673052;85;20975;-81
2022/06/15 00:24:59;;;;;;;4.25;1.82;;;;;;;12.06;70.47;97071.83;1667506;85;21406;-81
2022/06/15 00:27:25;;;;;;;3.12;1.60;;;;;;;12.00;70.12;97073.31;1659176;85;21092;-81
2022/06/15 00:29:51;;;;;;;4.50;2.12;;;;;;;11.94;70.15;97072.71;1680838;84;21258;-81
2022/06/15 00:32:17;;;;;;;3.85;1.67;;;;;;;11.92;70.26;97072.08;1681956;84;21463;-81
2022/06/15 00:34:42;;;;;;;4.05;1.65;;;;;;;11.89;70.54;97071.12;1680814;85;21022;-81
2022/06/15 00:37:08;;;;;;;5.67;1.87;;;;;;;11.88;70.66;97072.92;1678724;85;20975;-81
2022/06/15 00:39:34;;;;;;;3.80;1.65;;;;;;;11.87;70.87;97068.67;1705080;82;20947;-82
2022/06/15 00:42:00;;;;;;;4.25;2.10;;;;;;;11.83;70.59;97068.70;1681194;85;20974;-82
2022/06/15 00:44:33;;;;;;;3.75;1.65;;;;;;;11.78;70.48;97068.88;1678490;85;21104;-82
2022/06/15 00:47:12;;;;;;;5.90;2.30;;;;;;;11.73;70.54;97063.70;1723877;82;21045;-82
2022/06/15 00:50:01;;;;;;;3.83;2.15;;;;;;;11.68;70.79;97062.58;1697718;82;21404;-81
2022/06/15 00:52:41;;;;;;;4.37;1.85;;;;;;;11.62;70.95;97059.37;1717516;82;20953;-82
2022/06/15 00:55:18;;;;;;;4.90;1.82;;;;;;;11.58;70.75;97062.00;1696937;82;21039;-82
2022/06/15 00:57:44;;;;;;;2.33;1.40;;;;;;;11.57;70.81;97066.40;1716131;82;20965;-82
2022/06/15 01:00:12;;;;;;;4.20;2.12;;;;;;;11.58;70.62;97063.30;1717609;83;21038;-82
2022/06/15 01:02:38;;;;;;;3.45;1.70;;;;;;;11.58;70.77;97056.80;1722365;82;20936;-82
2022/06/15 01:05:09;;;;;;;3.85;1.92;;;;;;;11.58;71.14;97052.89;1704028;82;20962;-82
2022/06/15 01:08:12;;;;;;;5.53;1.92;;;;;;;11.59;71.35;97054.52;1720280;82;20978;-82
2022/06/15 01:10:59;;;;;;;5.92;2.00;;;;;;;11.56;71.19;97053.56;1708789;82;20983;-82
2022/06/15 01:13:49;;;;;;;4.17;1.90;;;;;;;11.52;71.09;97050.47;1683921;83;21437;-82
2022/06/15 01:16:37;;;;;;;3.35;1.90;;;;;;;11.48;71.40;97047.89;1683139;84;20978;-82
2022/06/15 01:19:23;;;;;;;3.10;2.33;;;;;;;11.44;71.60;97053.13;1676016;85;21010;-82
2022/06/15 01:22:12;;;;;;;2.05;1.27;;;;;;;11.38;71.84;97044.68;1695602;85;21010;-81
2022/06/15 01:25:08;;;;;;;3.70;1.72;;;;;;;11.33;71.72;97048.30;1695803;84;20980;-82
2022/06/15 01:27:51;;;;;;;3.77;1.85;;;;;;;11.29;71.62;97053.52;1695952;84;21035;-81
2022/06/15 01:30:44;;;;;;;7.35;2.72;;;;;;;11.26;71.75;97055.16;1667261;85;21043;-82
2022/06/15 01:33:39;;;;;;;2.90;1.67;;;;;;;11.21;71.86;97051.75;1692373;85;21011;-82
2022/06/15 01:36:22;;;;;;;3.10;2.05;;;;;;;11.15;71.73;97052.44;1685305;85;21034;-82
2022/06/15 01:39:22;;;;;;;3.72;2.00;;;;;;;11.10;72.03;97062.55;1690496;84;20947;-82
2022/06/15 01:41:54;;;;;;;3.90;1.70;;;;;;;11.05;72.30;97056.52;1688818;85;21015;-82
2022/06/15 01:44:36;;;;;;;5.57;1.80;;;;;;;11.00;72.52;97056.22;1689802;84;21008;-82
2022/06/15 01:47:05;;;;;;;3.55;1.67;;;;;;;10.99;72.51;97051.20;1695119;85;21340;-81
2022/06/15 01:49:41;;;;;;;3.10;1.70;;;;;;;10.97;72.79;97051.85;1695950;84;20959;-82
2022/06/15 01:52:08;;;;;;;5.22;1.92;;;;;;;10.97;72.71;97051.36;1693217;85;21439;-81
2022/06/15 01:54:39;;;;;;;4.87;2.05;;;;;;;10.97;73.20;97053.97;1685061;84;20987;-82
2022/06/15 01:57:05;;;;;;;6.22;2.35;;;;;;;10.97;73.12;97050.55;1691025;85;21031;-82
2022/06/15 01:59:43;;;;;;;4.45;2.10;;;;;;;10.96;73.25;97051.53;1693578;84;20981;-82
2022/06/15 02:02:44;;;;;;;7.10;1.65;;;;;;;10.95;73.04;97051.22;1691492;85;21338;-81
2022/06/15 02:05:27;;;;;;;6.30;2.27;;;;;;;10.96;73.09;97049.74;1682512;85;21003;-82
2022/06/15 02:08:08;;;;;;;3.47;1.90;;;;;;;10.99;73.18;97049.89;1682574;85;21050;-84
2022/06/15 02:11:09;;;;;;;2.80;1.85;;;;;;;11.00;73.21;97051.02;1685242;85;20963;-84
2022/06/15 02:13:51;;;;;;;4.00;1.70;;;;;;;11.00;73.28;97041.11;1688768;82;21019;-85
2022/06/15 02:16:25;;;;;;;2.20;1.75;;;;;;;10.97;73.52;97050.55;1690586;82;20976;-82
2022/06/15 02:18:50;;;;;;;5.47;2.27;;;;;;;10.91;73.61;97044.73;1696837;82;21386;-81
2022/06/15 02:21:19;;;;;;;3.62;1.80;;;;;;;10.89;73.85;97046.66;1729482;82;21117;-82
2022/06/15 02:23:48;;;;;;;5.58;2.12;;;;;;;10.88;73.47;97047.64;1695738;82;21053;-82
2022/06/15 02:26:14;;;;;;;5.62;2.02;;;;;;;10.87;73.27;97048.13;1692165;82;21425;-81
2022/06/15 02:28:43;;;;;;;4.65;1.77;;;;;;;10.86;73.37;97047.81;1703568;82;20920;-81
2022/06/15 02:31:08;;;;;;;3.92;1.60;;;;;;;10.85;73.45;97046.69;1708242;82;21006;-81
2022/06/15 02:33:40;;;;;;;3.67;1.80;;;;;;;10.81;73.41;97041.02;1722913;82;20926;-81
2022/06/15 02:36:06;;;;;;;5.22;2.05;;;;;;;10.77;73.75;97044.44;1747381;82;20965;-81
2022/06/15 02:38:32;;;;;;;3.25;2.05;;;;;;;10.72;74.02;97046.70;1714193;82;21449;-81
2022/06/15 02:40:58;;;;;;;3.95;2.33;;;;;;;10.68;74.17;97041.52;1707061;83;21406;-81
2022/06/15 02:43:27;;;;;;;4.45;1.80;;;;;;;10.69;74.49;97046.23;1712646;82;21114;-82
2022/06/15 02:45:55;;;;;;;2.20;1.50;;;;;;;10.71;74.53;97045.09;1675592;84;21030;-81
2022/06/15 02:48:21;;;;;;;3.75;2.08;;;;;;;10.72;74.68;97042.81;1702997;82;21039;-81
2022/06/15 02:50:54;;;;;;;5.75;1.82;;;;;;;10.72;74.27;97044.11;1692088;82;21022;-81
2022/06/15 02:53:24;;;;;;;5.67;2.05;;;;;;;10.71;74.33;97048.98;1709781;83;21023;-82
2022/06/15 02:55:50;;;;;;;2.58;1.75;;;;;;;10.69;74.12;97048.34;1704476;82;20987;-81
2022/06/15 02:58:32;;;;;;;3.10;1.80;;;;;;;10.66;74.26;97046.08;1708637;82;20958;-81
2022/06/15 03:00:57;;;;;;;4.60;2.12;;;;;;;10.63;74.29;97045.12;1707927;82;21097;-81
2022/06/15 03:03:24;;;;;;;5.30;1.72;;;;;;;10.58;74.30;97047.41;1709489;82;21024;-81
2022/06/15 03:05:50;;;;;;;2.85;1.52;;;;;;;10.55;74.55;97045.61;1715452;82;21030;-81
2022/06/15 03:08:17;;;;;;;4.40;1.90;;;;;;;10.54;74.22;97044.80;1723665;82;21015;-81
2022/06/15 03:10:42;;;;;;;3.98;1.70;;;;;;;10.53;74.49;97047.88;1685487;84;20986;-81
2022/06/15 03:13:08;;;;;;;5.22;2.22;;;;;;;10.53;74.54;97043.98;1710830;82;21047;-81
2022/06/15 03:15:34;;;;;;;4.03;2.20;;;;;;;10.51;74.67;97048.55;1717978;82;21017;-81
2022/06/15 03:18:00;;;;;;;3.02;2.10;;;;;;;10.50;74.63;97051.31;1714447;82;20954;-81
2022/06/15 03:20:26;;;;;;;3.10;1.92;;;;;;;10.49;74.68;97050.50;1710125;82;21002;-81
2022/06/15 03:22:51;;;;;;;4.08;1.82;;;;;;;10.49;74.67;97048.39;1725680;82;21081;-81
2022/06/15 03:25:18;;;;;;;6.17;1.95;;;;;;;10.50;74.71;97052.61;1740769;82;20985;-81
2022/06/15 03:27:44;;;;;;;6.03;2.00;;;;;;;10.51;74.84;97055.52;1727654;83;21026;-81
2022/06/15 03:30:10;;;;;;;5.67;2.12;;;;;;;10.51;74.81;97059.42;1710510;82;20993;-81
2022/06/15 03:32:36;;;;;;;4.35;2.05;;;;;;;10.50;74.80;97058.61;1713758;82;20941;-81
2022/06/15 03:35:03;;;;;;;3.12;1.90;;;;;;;10.47;75.08;97058.95;1724163;82;21009;-81
2022/06/15 03:37:28;;;;;;;4.97;2.15;;;;;;;10.46;75.19;97054.73;1721685;83;20983;-81
2022/06/15 03:39:54;;;;;;;3.40;2.00;;;;;;;10.45;75.32;97057.00;1730113;82;20927;-81
2022/06/15 03:42:23;;;;;;;2.65;1.60;;;;;;;10.44;75.44;97061.88;1723343;82;21000;-81
2022/06/15 03:44:50;;;;;;;3.10;1.62;;;;;;;10.46;75.74;97056.03;1711782;82;20997;-81
2022/06/15 03:47:17;;;;;;;3.83;1.82;;;;;;;10.49;75.79;97068.69;1726790;82;21394;-82
2022/06/15 03:49:50;;;;;;;3.77;2.10;;;;;;;10.53;75.84;97062.66;1717429;83;20986;-82
2022/06/15 03:52:19;;;;;;;5.42;2.12;;;;;;;10.52;76.04;97055.36;1709878;82;21038;-82
2022/06/15 03:54:45;;;;;;;5.28;2.30;;;;;;;10.52;76.34;97058.45;1719667;82;21007;-82
2022/06/15 03:57:12;;;;;;;3.17;2.02;;;;;;;10.49;76.57;97058.78;1715012;82;21000;-82
2022/06/15 03:59:39;;;;;;;2.77;1.75;;;;;;;10.46;77.03;97064.31;1723938;82;21343;-82
2022/06/15 04:02:05;;;;;;;4.45;1.90;;;;;;;10.45;77.42;97058.30;1712559;83;20957;-82
2022/06/15 04:04:33;;;;;;;4.62;1.67;;;;;;;10.46;77.51;97061.71;1714094;82;21017;-83
2022/06/15 04:06:59;;;;;;;2.67;1.65;;;;;;;10.48;77.55;97054.56;1719010;82;20955;-82
2022/06/15 04:09:26;;;;;;;4.40;2.10;;;;;;;10.50;77.61;97053.41;1714384;82;21037;-82
2022/06/15 04:12:08;;;;;;;3.72;1.95;;;;;;;10.54;77.74;97056.48;1713765;83;20986;-82
2022/06/15 04:14:32;;;;;;;2.30;1.80;;;;;;;10.56;77.75;97059.73;1642666;84;21197;-82
2022/06/15 04:16:58;;;;;;;2.62;1.92;;;;;;;10.57;78.08;97057.45;1622342;87;21029;-82
2022/06/15 04:19:28;;;;;;;3.20;2.30;;;;;;;10.60;78.33;97058.94;1653480;86;21022;-82
2022/06/15 04:21:54;;;;;;;3.15;1.45;;;;;;;10.64;78.49;97058.92;1657265;85;21021;-82
2022/06/15 04:24:22;;;;;;;4.20;2.10;;;;;;;10.70;78.67;97060.85;1651336;85;21035;-82
2022/06/15 04:26:50;;;;;;;3.98;2.17;;;;;;;10.77;78.83;97059.23;1664080;85;20968;-83
2022/06/15 04:29:16;;;;;;;3.27;1.92;;;;;;;10.80;78.68;97061.00;1657970;85;21027;-82
2022/06/15 04:31:42;;;;;;;3.22;1.90;;;;;;;10.81;78.79;97056.61;1684880;85;21051;-82
2022/06/15 04:34:09;;;;;;;3.95;1.90;;;;;;;10.82;78.93;97055.14;1690299;84;20967;-83
2022/06/15 04:36:35;;;;;;;5.85;2.27;;;;;;;10.87;79.02;97059.02;1690374;85;20991;-82
2022/06/15 04:39:00;;;;;;;2.40;1.90;;;;;;;10.91;79.14;97055.13;1661614;85;21319;-82
2022/06/15 04:41:26;;;;;;;3.33;1.62;;;;;;;10.95;79.17;97061.61;1690733;85;20979;-82
2022/06/15 04:43:52;;;;;;;3.62;1.75;;;;;;;11.01;79.36;97058.34;1687690;84;21106;-82
2022/06/15 04:46:17;;;;;;;5.08;2.12;;;;;;;11.05;79.38;97060.91;1673142;85;20940;-83
2022/06/15 04:48:43;;;;;;;3.00;1.92;;;;;;;11.07;79.47;97063.69;1675757;83;21005;-82
2022/06/15 04:51:22;;;;;;;3.75;2.20;;;;;;;11.08;79.50;97059.30;1670159;85;21300;-82
2022/06/15 04:53:48;;;;;;;3.47;1.80;;;;;;;11.09;79.78;97051.82;1672028;84;20993;-82
2022/06/15 04:56:16;;;;;;;4.42;1.70;;;;;;;11.12;80.12;97050.17;1681631;84;21016;-84
2022/06/15 04:58:43;;;;;;;5.17;2.05;;;;;;;11.16;80.31;97046.25;1674701;83;21014;-83
2022/06/15 05:01:11;;;;;;;4.37;1.82;;;;;;;11.21;80.44;97051.75;1679426;83;20940;-82
2022/06/15 05:03:37;;;;;;;4.42;2.05;;;;;;;11.28;80.48;97050.60;1684621;85;21456;-82
2022/06/15 05:06:13;;;;;;;3.10;2.10;;;;;;;11.33;80.65;97049.10;1683247;83;20974;-82
2022/06/15 05:08:39;;;;;;;5.08;2.00;;;;;;;11.41;80.65;97045.66;1663475;85;21325;-83
2022/06/15 05:11:05;;;;;;;3.67;1.82;;;;;;;11.47;80.76;97048.88;1676650;83;21081;-83
2022/06/15 05:13:31;;;;;;;2.65;1.75;;;;;;;11.50;80.98;97043.32;1664728;85;21057;-82
2022/06/15 05:15:58;;;;;;;3.65;1.67;;;;;;;11.54;81.05;97047.20;1656916;85;21255;-82
2022/06/15 05:18:24;;;;;;;5.10;1.82;;;;;;;11.56;80.69;97043.15;1658853;86;20949;-83
2022/06/15 05:20:49;;;;;;;4.40;2.17;;;;;;;11.60;81.01;97048.33;1712837;82;20919;-82
2022/06/15 05:23:16;;;;;;;3.30;2.10;;;;;;;11.65;81.18;97044.70;1715271;82;20959;-82
2022/06/15 05:25:42;;;;;;;2.33;1.85;;;;;;;11.72;81.03;97050.37;1718703;83;21038;-82
2022/06/15 05:28:12;;;;;;;2.85;1.87;;;;;;;11.78;81.28;97046.25;1713414;82;21021;-82
2022/06/15 05:30:38;;;;;;;3.02;1.80;;;;;;;11.81;81.06;97053.75;1721079;82;21023;-81
2022/06/15 05:33:04;;;;;;;2.85;1.85;;;;;;;11.83;81.22;97053.08;1710651;82;21246;-82
2022/06/15 05:35:29;;;;;;;2.45;1.65;;;;;;;11.88;81.59;97050.78;1729364;80;20980;-82
2022/06/15 05:37:55;;;;;;;3.90;1.80;;;;;;;11.93;81.33;97057.58;1716065;80;20971;-82
2022/06/15 05:40:21;;;;;;;2.92;1.82;;;;;;;11.99;81.09;97054.77;1726624;82;20957;-82
2022/06/15 05:42:46;;;;;;;2.67;2.05;;;;;;;12.05;81.20;97054.09;1732850;81;20959;-82
2022/06/15 05:45:12;;;;;;;4.33;2.17;;;;;;;12.10;81.62;97049.64;1716405;82;20998;-82
2022/06/15 05:47:38;;;;;;;3.77;1.90;;;;;;;12.15;81.84;97055.13;1711688;82;21389;-82
2022/06/15 05:50:05;;;;;;;4.08;1.87;;;;;;;12.22;81.33;97059.98;1713631;82;20983;-82
2022/06/15 05:52:31;;;;;;;2.08;1.45;;;;;;;12.29;80.99;97055.67;1718762;82;21376;-81
2022/06/15 05:54:58;;;;;;;2.77;1.95;;;;;;;12.36;80.68;97056.58;1719921;82;21002;-82
2022/06/15 05:57:25;;;;;;;4.80;2.02;;;;;;;12.42;80.18;97057.19;1707844;82;21468;-82
2022/06/15 05:59:51;;;;;;;6.40;2.40;;;;;;;12.48;80.40;97062.99;1716997;82;20986;-82
2022/06/15 06:02:18;;;;;;;2.77;2.20;;;;;;;12.54;80.21;97062.30;1722808;82;21019;-82
2022/06/15 06:04:44;;;;;;;4.53;2.12;;;;;;;12.61;80.40;97067.61;1722712;83;20980;-82
2022/06/15 06:07:10;;;;;;;3.62;2.20;;;;;;;12.65;80.38;97058.93;1724688;82;21498;-82
2022/06/15 06:09:37;;;;;;;3.10;1.87;;;;;;;12.75;79.98;97056.89;1718240;82;21416;-81
2022/06/15 06:12:05;;;;;;;4.05;1.80;;;;;;;12.87;80.43;97058.07;1720301;82;21023;-82
2022/06/15 06:14:31;;;;;;;5.12;2.70;;;;;;;12.95;80.52;97059.27;1723181;82;21031;-82
2022/06/15 06:16:57;;;;;;;5.53;2.20;;;;;;;13.06;78.89;97064.05;1726561;82;21031;-82
2022/06/15 06:19:22;;;;;;;6.60;2.90;;;;;;;13.19;78.27;97068.17;1721740;82;20933;-82
2022/06/15 06:21:48;;;;;;;5.10;2.85;;;;;;;13.32;76.96;97066.20;1707434;82;21336;-82
2022/06/15 06:24:14;;;;;;;4.12;2.50;;;;;;;13.45;77.89;97067.67;1718840;82;21017;-82
2022/06/15 06:26:42;;;;;;;4.12;2.60;;;;;;;13.51;78.54;97063.05;1732937;82;20924;-82
2022/06/15 06:29:10;;;;;;;5.05;2.70;;;;;;;13.59;76.83;97071.25;1713792;82;20994;-82
2022/06/15 06:31:36;;;;;;;5.10;2.33;;;;;;;13.70;76.42;97073.89;1710785;82;20952;-82
2022/06/15 06:34:02;;;;;;;3.67;2.02;;;;;;;13.79;77.67;97072.28;1718777;82;21419;-82
2022/06/15 06:36:45;;;;;;;6.12;2.65;;;;;;;13.86;77.80;97077.59;1718796;82;20959;-82
2022/06/15 06:39:18;;;;;;;3.10;2.58;;;;;;;13.97;76.52;97078.38;1694479;83;21027;-82
2022/06/15 06:41:44;;;;;;;6.47;2.20;;;;;;;14.10;76.38;97082.94;1719315;82;20985;-81
2022/06/15 06:44:11;;;;;;;2.75;2.00;;;;;;;14.21;73.40;97081.14;1720166;82;21019;-82
2022/06/15 06:46:37;;;;;;;3.85;2.40;;;;;;;14.38;75.08;97083.81;1716547;82;20952;-82
2022/06/15 06:49:05;;;;;;;4.72;2.27;;;;;;;14.54;73.88;97084.57;1723502;82;20986;-82
2022/06/15 06:51:30;;;;;;;5.20;2.95;;;;;;;14.65;74.01;97083.56;1730243;82;20963;-82
2022/06/15 06:53:56;;;;;;;4.20;2.02;;;;;;;14.77;73.54;97087.75;1716777;82;20951;-82
2022/06/15 06:56:22;;;;;;;2.45;2.02;;;;;;;14.82;71.52;97080.66;1716940;82;20998;-82
2022/06/15 06:58:47;;;;;;;5.03;2.37;;;;;;;14.87;74.05;97076.96;1716185;82;20963;-82
2022/06/15 07:01:13;;;;;;;4.80;2.15;;;;;;;14.96;71.22;97082.34;1718802;82;20944;-82
2022/06/15 07:03:39;;;;;;;4.15;2.08;;;;;;;15.07;70.41;97076.58;1724962;82;20947;-82
2022/06/15 07:06:07;;;;;;;3.10;2.20;;;;;;;15.22;72.05;97079.88;1725006;82;20971;-82
2022/06/15 07:08:33;;;;;;;6.03;2.55;;;;;;;15.26;69.50;97077.68;1719818;82;21510;-82
2022/06/15 07:10:59;;;;;;;4.45;2.02;;;;;;;15.33;71.56;97074.61;1714901;82;20954;-82
2022/06/15 07:13:25;;;;;;;4.83;1.80;;;;;;;15.34;70.41;97078.84;1721085;82;21003;-82
2022/06/15 07:15:51;;;;;;;4.28;2.17;;;;;;;15.43;68.19;97081.58;1706893;82;21075;-82
2022/06/15 07:18:17;;;;;;;2.60;1.85;;;;;;;15.52;66.63;97075.19;1704284;82;20972;-82
2022/06/15 07:20:43;;;;;;;4.45;1.95;;;;;;;15.63;66.58;97081.72;1696609;82;20976;-82
2022/06/15 07:23:09;;;;;;;5.15;1.90;;;;;;;15.73;67.44;97081.33;1701519;82;21373;-82
2022/06/15 07:25:34;;;;;;;3.35;1.72;;;;;;;15.80;64.93;97080.36;1704143;82;20990;-82
2022/06/15 07:28:02;;;;;;;4.35;1.98;;;;;;;15.87;66.38;97079.86;1699020;83;20939;-82
2022/06/15 07:30:28;;;;;;;6.87;2.42;;;;;;;15.89;67.45;97079.66;1704295;82;21047;-82
2022/06/15 07:32:53;;;;;;;4.28;2.22;;;;;;;15.94;65.16;97081.17;1710706;83;21080;-82
2022/06/15 07:35:30;;;;;;;3.95;2.10;;;;;;;16.01;64.94;97080.70;1708314;82;21055;-82
2022/06/15 07:37:56;;;;;;;6.92;2.75;;;;;;;16.09;65.64;97075.26;1704158;83;21051;-82
2022/06/15 07:40:23;;;;;;;2.55;1.75;;;;;;;16.17;64.22;97080.33;1697155;82;20919;-81
2022/06/15 07:42:49;;;;;;;4.00;1.95;;;;;;;16.26;63.56;97078.81;1702540;82;20995;-82
2022/06/15 07:45:15;;;;;;;4.78;2.65;;;;;;;16.31;63.65;97084.28;1703033;83;21046;-82
2022/06/15 07:50:25;;;;;;;5.37;2.45;;;;;;;16.42;62.72;97084.98;1698838;82;21099;-82
2022/06/15 07:52:51;;;;;;;3.92;2.20;;;;;;;16.49;62.34;97087.12;1703986;83;21015;-80
2022/06/15 07:55:22;;;;;;;3.37;1.98;;;;;;;16.57;62.98;97082.97;1698925;82;21013;-81
2022/06/15 07:57:48;;;;;;;7.50;2.40;;;;;;;16.69;62.49;97080.08;1701823;83;21443;-81
2022/06/15 08:00:15;;;;;;;2.83;2.08;;;;;;;16.80;63.54;97081.28;1701087;83;21023;-81
2022/06/15 08:02:41;;;;;;;4.40;2.30;;;;;;;16.85;63.28;97076.73;1699766;83;20995;-81
2022/06/15 08:05:08;;;;;;;4.17;2.50;;;;;;;16.91;64.23;97078.52;1681431;84;20964;-82
2022/06/15 08:07:34;;;;;;;3.77;2.42;;;;;;;17.02;62.67;97070.84;1701999;83;21042;-81
2022/06/15 08:10:00;;;;;;;5.90;2.30;;;;;;;17.19;61.99;97075.65;1705694;83;21314;-81
2022/06/15 08:12:27;;;;;;;5.87;1.92;;;;;;;17.36;61.62;97076.81;1693194;82;21528;-81
2022/06/15 08:14:56;;;;;;;3.45;1.95;;;;;;;17.43;60.24;97070.23;1699381;82;21385;-82
2022/06/15 08:17:28;;;;;;;3.92;1.90;;;;;;;17.47;59.14;97070.92;1713688;82;20975;-81
2022/06/15 08:19:58;;;;;;;5.10;2.20;;;;;;;17.46;59.43;97073.75;1700434;82;20974;-82
2022/06/15 08:22:24;;;;;;;4.12;2.77;;;;;;;17.64;58.68;97068.11;1733648;82;21038;-82
2022/06/15 08:24:50;;;;;;;4.35;1.85;;;;;;;17.87;59.51;97072.06;1713729;82;21477;-81
2022/06/15 08:27:19;;;;;;;4.15;2.40;;;;;;;18.03;57.92;97066.81;1714776;82;20950;-81
2022/06/15 08:29:46;;;;;;;4.08;2.10;;;;;;;18.15;56.29;97054.61;1737017;82;20960;-82
2022/06/15 08:32:12;;;;;;;4.40;1.60;;;;;;;18.34;57.48;97058.91;1707262;82;21021;-81
2022/06/15 08:34:38;;;;;;;3.25;1.90;;;;;;;18.45;57.03;97067.44;1735597;82;20953;-81
2022/06/15 08:37:06;;;;;;;25.37;20.32;;;;;;;18.28;55.58;97063.22;1718205;83;21358;-81
2022/06/15 08:39:32;;;;;;;14.07;10.78;;;;;;;18.09;56.70;97075.19;1724423;83;20983;-81
2022/06/15 08:42:26;;;;;;;17.82;13.68;;;;;;;18.19;56.74;97080.77;1706828;82;21357;-81
2022/06/15 08:45:13;;;;;;;8.65;4.35;;;;;;;18.46;56.70;97078.77;1706874;82;21068;-82
2022/06/15 08:48:21;;;;;;;6.10;2.20;;;;;;;18.81;56.16;97072.02;1710904;82;21022;-81
2022/06/15 08:50:58;;;;;;;5.25;2.65;;;;;;;19.09;55.33;97066.80;1703073;82;20994;-80
2022/06/15 08:53:29;;;;;;;4.20;2.50;;;;;;;19.33;55.80;97069.05;1708890;82;20982;-81
2022/06/15 08:56:10;;;;;;;3.98;2.40;;;;;;;19.42;54.21;97071.19;1716576;82;22171;-81
2022/06/15 08:59:16;;;;;;;3.77;2.10;;;;;;;19.26;54.34;97071.78;1710625;82;21037;-81
2022/06/15 09:02:12;;;;;;;3.83;2.08;;;;;;;18.95;54.13;97074.02;1707970;82;20970;-81
2022/06/15 09:04:59;;;;;;;4.50;1.60;;;;;;;18.71;54.46;97071.72;1701774;82;21070;-81
2022/06/15 09:07:46;;;;;;;3.75;1.90;;;;;;;18.94;55.09;97075.05;1705619;82;21455;-80
2022/06/15 09:10:46;;;;;;;6.00;2.27;;;;;;;19.23;52.62;97072.22;1710667;82;21009;-80
2022/06/15 09:13:56;;;;;;;3.83;1.92;;;;;;;19.43;53.74;97075.95;1711809;82;20989;-80
2022/06/15 09:16:56;;;;;;;5.85;1.85;;;;;;;19.59;52.88;97075.38;1648173;86;21068;-81
2022/06/15 09:19:31;;;;;;;2.20;1.25;;;;;;;19.72;52.38;97065.98;1702649;82;21010;-81
2022/06/15 09:22:05;;;;;;;4.50;1.45;;;;;;;19.75;52.39;97061.58;1709630;82;20932;-81
2022/06/15 09:24:41;;;;;;;4.28;1.95;;;;;;;19.74;54.50;97059.97;1706754;82;21000;-80
2022/06/15 09:27:11;;;;;;;3.92;1.25;;;;;;;19.78;54.10;97062.45;1709822;82;21010;-80
2022/06/15 09:29:45;;;;;;;4.00;1.80;;;;;;;19.88;54.81;97065.88;1711387;82;21034;-81
2022/06/15 09:32:17;;;;;;;4.30;1.77;;;;;;;19.90;52.62;97058.55;1675225;85;21031;-81
2022/06/15 09:35:00;;;;;;;3.47;1.82;;;;;;;19.95;53.71;97071.05;1675900;85;21114;-81
2022/06/15 09:37:29;;;;;;;5.00;1.70;;;;;;;20.00;51.67;97065.90;1692166;84;20959;-81
2022/06/15 09:39:54;;;;;;;3.25;1.75;;;;;;;20.05;52.06;97066.86;1668367;85;21028;-81
2022/06/15 09:42:37;;;;;;;3.58;1.60;;;;;;;20.19;52.87;97060.07;1668560;85;20974;-81
2022/06/15 09:45:32;;;;;;;6.35;2.37;;;;;;;20.26;52.62;97062.89;1652994;86;22327;-81
2022/06/15 09:48:18;;;;;;;3.58;1.72;;;;;;;20.19;51.88;97065.34;1710197;82;21428;-80
2022/06/15 09:51:14;;;;;;;3.87;1.55;;;;;;;20.27;51.68;97069.77;1710192;82;21067;-80
2022/06/15 09:54:10;;;;;;;2.83;1.70;;;;;;;20.32;52.77;97067.77;1671818;85;20975;-80
2022/06/15 09:56:35;;;;;;;3.37;1.35;;;;;;;20.33;50.75;97066.22;1686953;84;21065;-80
2022/06/15 09:59:10;;;;;;;3.45;1.40;;;;;;;20.39;54.30;97067.97;1648390;85;21016;-81
2022/06/15 10:01:41;;;;;;;4.78;1.50;;;;;;;20.44;51.93;97072.59;1682108;84;21017;-80
2022/06/15 10:04:21;;;;;;;3.22;1.27;;;;;;;20.48;49.77;97070.30;1656236;85;21399;-81
2022/06/15 10:06:52;;;;;;;4.25;1.50;;;;;;;20.52;53.75;97059.59;1656265;85;21031;-81
2022/06/15 10:09:24;;;;;;;7.22;2.58;;;;;;;20.59;51.71;97054.48;1706833;82;21496;-81
2022/06/15 10:11:53;;;;;;;;;;;;;;;20.71;52.50;97049.73;1672592;85;21054;-81
2022/06/15 10:14:29;;;;;;;3.10;1.50;;;;;;;20.75;51.63;97051.67;1688009;84;20123;-81
2022/06/15 10:17:07;;;;;;;5.12;1.95;;;;;;;20.76;53.19;97055.11;1665559;85;21071;-80
2022/06/15 10:19:34;;;;;;;5.67;1.60;;;;;;;20.77;51.13;97048.28;1681988;84;21016;-80
2022/06/15 10:22:05;;;;;;;2.62;1.77;;;;;;;20.84;52.00;97050.83;1656306;85;21032;-81
2022/06/15 10:24:36;;;;;;;3.92;1.82;;;;;;;20.85;50.04;97051.11;1656840;85;20996;-80
2022/06/15 10:27:22;;;;;;;4.28;1.52;;;;;;;20.86;49.62;97042.15;1656353;85;21003;-80
2022/06/15 10:30:14;;;;;;;3.25;1.27;;;;;;;20.84;46.63;97043.70;1706096;82;21002;-81
2022/06/15 10:33:03;;;;;;;3.95;1.52;;;;;;;20.75;48.25;97039.78;1710244;82;20973;-80
2022/06/15 10:35:31;;;;;;;3.02;1.67;;;;;;;20.68;48.18;97031.19;1676521;82;20962;-81
2022/06/15 10:37:59;;;;;;;3.90;1.90;;;;;;;20.77;49.02;97031.11;1711157;82;21002;-80
2022/06/15 10:40:35;;;;;;;13.35;10.60;;;;;;;20.90;51.12;97030.88;1707487;82;21017;-80
2022/06/15 10:43:14;;;;;;;9.83;6.92;;;;;;;21.02;50.21;97031.39;1709693;82;21022;-80
2022/06/15 10:45:56;;;;;;;4.20;3.25;;;;;;;21.13;49.97;97025.27;1708377;82;21026;-80
2022/06/15 10:48:35;;;;;;;7.10;4.75;;;;;;;21.18;48.79;97022.75;1677724;85;20975;-81
2022/06/15 10:51:08;;;;;;;6.97;3.50;;;;;;;21.28;49.46;97026.94;1668083;85;21088;-81
2022/06/15 10:54:15;;;;;;;6.20;4.53;;;;;;;21.34;48.61;97018.09;1640672;85;21033;-81
2022/06/15 11:02:40;;;;;;;3.40;1.70;;;;;;;21.28;48.37;97012.40;1688993;84;21042;-81
2022/06/15 11:05:14;;;;;;;11.45;6.58;;;;;;;21.25;47.96;97011.03;1668396;85;20991;-81
2022/06/15 11:07:59;;;;;;;11.68;8.95;;;;;;;21.37;47.90;97013.66;1668298;85;21027;-81
2022/06/15 11:10:40;;;;;;;13.35;8.05;;;;;;;21.42;48.00;97012.42;1668328;85;20998;-80
2022/06/15 11:13:23;;;;;;;4.05;2.75;;;;;;;21.45;48.12;97008.50;1668555;85;21011;-81
2022/06/15 11:18:45;;;;;;;3.55;1.57;;;;;;;21.60;47.63;97006.66;1696369;82;21023;-80
2022/06/15 11:21:24;;;;;;;4.08;1.17;;;;;;;21.71;48.05;97009.27;1688009;82;21026;-80
2022/06/15 11:23:58;;;;;;;3.02;1.17;;;;;;;21.76;46.30;97010.67;1701131;82;20995;-80
2022/06/15 11:26:53;;;;;;;3.90;1.12;;;;;;;21.85;46.35;97007.14;1690798;82;21430;-80
2022/06/15 11:29:52;;;;;;;3.17;1.60;;;;;;;21.91;46.81;97004.05;1674070;82;20999;-80
2022/06/15 11:32:52;;;;;;;4.03;1.50;;;;;;;21.99;45.42;97007.65;1697225;82;21098;-81
2022/06/15 11:35:43;;;;;;;2.50;1.07;;;;;;;22.00;47.08;97006.08;1697421;82;20999;-80
2022/06/15 11:38:30;;;;;;;2.65;1.00;;;;;;;21.99;45.53;96999.19;1696140;82;21106;-80
2022/06/15 11:41:19;;;;;;;3.20;1.30;;;;;;;21.82;45.49;97002.33;1697230;82;21087;-80
2022/06/15 11:43:46;;;;;;;2.52;1.10;;;;;;;21.85;46.95;97003.17;1707303;82;21118;-80
2022/06/15 11:46:29;;;;;;;3.72;1.32;;;;;;;21.87;44.92;97007.18;1695875;82;21117;-80
2022/06/15 11:49:37;;;;;;;2.98;1.27;;;;;;;21.86;45.44;97003.45;1696372;82;20952;-80
2022/06/15 11:52:36;;;;;;;3.27;1.42;;;;;;;21.92;45.19;96999.04;1698611;82;21004;-81
2022/06/15 11:55:31;;;;;;;2.77;1.17;;;;;;;22.00;46.28;96999.47;1693879;82;20959;-80
2022/06/15 11:58:27;;;;;;;3.77;1.30;;;;;;;22.02;44.92;97011.13;1696313;82;21417;-80
2022/06/15 12:01:21;;;;;;;2.50;1.12;;;;;;;21.85;44.94;96997.36;1693803;82;21313;-80
2022/06/15 12:04:40;;;;;;;2.75;1.00;;;;;;;21.86;43.98;97002.93;1696230;82;21026;-80
2022/06/15 12:07:41;;;;;;;3.92;1.50;;;;;;;21.87;45.29;97000.56;1689922;82;21198;-81
2022/06/15 12:10:46;;;;;;;2.10;1.20;;;;;;;21.95;47.24;96999.36;1693343;82;21118;-80
2022/06/15 12:13:24;;;;;;;4.60;1.32;;;;;;;21.99;44.78;96995.22;1685986;82;21001;-80